Time;durP1;ratioP1;P1;durP2;ratioP2;P2;SDS_P1;SDS_P2;PMS_P1;PMS_P2;Temp;Humidity;BMP_temperature;BMP_pressure;BME280_temperature;BME280_humidity;BME280_pressure;Samples;Min_cycle;Max_cycle;Signal;HPM_P1;HPM_P2
2021/06/20 00:01:53;;;;;;;;;;;21.30;99.90;;;;;;8359010;28;20047;-65
2021/06/20 00:05:55;;;;;;;;;;;20.90;99.90;;;;;;8388020;28;19931;-66
2021/06/20 00:09:55;;;;;;;;;;;20.80;99.90;;;;;;8392836;28;19931;-65
2021/06/20 00:13:56;;;;;;;;;;;20.90;99.90;;;;;;8392561;28;19943;-65
2021/06/20 00:17:58;;;;;;;;;;;20.90;99.90;;;;;;8392669;28;19917;-65
2021/06/20 00:21:59;;;;;;;;;;;21.00;99.90;;;;;;8392224;28;19931;-65
2021/06/20 00:25:59;;;;;;;;;;;21.00;99.90;;;;;;8358325;28;19963;-66
2021/06/20 00:30:00;;;;;;;;;;;20.70;99.90;;;;;;8359589;28;19940;-65
2021/06/20 00:34:00;;;;;;;;;;;20.50;99.90;;;;;;8371764;28;20382;-65
2021/06/20 00:38:01;;;;;;;;;;;20.80;99.90;;;;;;8392199;28;19950;-65
2021/06/20 00:42:01;;;;;;;;;;;20.60;99.90;;;;;;8391507;28;20011;-66
2021/06/20 00:46:03;;;;;;;;;;;20.60;99.90;;;;;;8391722;28;20003;-65
2021/06/20 00:50:06;;;;;;;;;;;20.30;99.90;;;;;;8392229;28;19912;-66
2021/06/20 00:54:07;;;;;;;;;;;20.40;99.90;;;;;;8373432;28;20049;-66
2021/06/20 00:58:07;;;;;;;;;;;20.30;99.90;;;;;;8357456;28;20550;-66
2021/06/20 01:02:08;;;;;;;;;;;20.20;99.90;;;;;;8358512;28;19923;-66
2021/06/20 01:06:08;;;;;;;;;;;20.10;99.90;;;;;;8388628;28;19912;-65
2021/06/20 01:10:09;;;;;;;;;;;20.10;99.90;;;;;;8391449;28;20598;-65
2021/06/20 01:14:10;;;;;;;;;;;20.40;99.90;;;;;;8391818;28;19919;-65
2021/06/20 01:18:11;;;;;;;;;;;20.20;99.90;;;;;;8390185;28;20058;-66
2021/06/20 01:22:14;;;;;;;;;;;19.90;99.90;;;;;;8389410;28;20447;-65
2021/06/20 01:26:14;;;;;;;;;;;20.00;99.90;;;;;;8361596;28;19939;-65
2021/06/20 01:30:19;;;;;;;;;;;19.70;99.90;;;;;;8365103;28;19949;-65
2021/06/20 01:34:22;;;;;;;;;;;19.90;99.90;;;;;;8378797;28;19908;-65
2021/06/20 01:38:23;;;;;;;;;;;19.70;99.90;;;;;;8397147;28;19912;-65
2021/06/20 01:42:23;;;;;;;;;;;19.70;99.90;;;;;;8397458;28;20474;-66
2021/06/20 01:46:24;;;;;;;;;;;19.60;99.90;;;;;;8395712;28;19991;-66
2021/06/20 01:50:25;;;;;;;;;;;19.30;99.90;;;;;;8397491;28;19909;-66
2021/06/20 01:54:25;;;;;;;;;;;19.60;99.90;;;;;;8377157;28;19919;-65
2021/06/20 01:58:26;;;;;;;;;;;19.50;99.90;;;;;;8363804;28;19909;-65
2021/06/20 02:02:27;;;;;;;;;;;19.60;99.90;;;;;;8364265;28;19999;-66
2021/06/20 02:06:28;;;;;;;;;;;19.50;99.90;;;;;;8396460;28;19943;-66
2021/06/20 02:10:28;;;;;;;;;;;19.40;99.90;;;;;;8393729;28;19947;-65
2021/06/20 02:14:29;;;;;;;;;;;19.20;99.90;;;;;;8395799;28;20004;-65
2021/06/20 02:18:29;;;;;;;;;;;19.10;99.90;;;;;;8395168;28;19917;-66
2021/06/20 02:22:31;;;;;;;;;;;19.00;99.90;;;;;;8370440;28;20011;-66
2021/06/20 02:26:31;;;;;;;;;;;19.30;99.90;;;;;;8363008;28;19920;-65
2021/06/20 02:30:31;;;;;;;;;;;19.30;99.90;;;;;;8363287;28;19909;-66
2021/06/20 02:34:32;;;;;;;;;;;19.20;99.90;;;;;;8379854;28;19915;-66
2021/06/20 02:38:32;;;;;;;;;;;19.30;99.90;;;;;;8395209;28;19916;-65
2021/06/20 02:42:33;;;;;;;;;;;19.10;99.90;;;;;;8395947;28;19965;-65
2021/06/20 02:46:34;;;;;;;;;;;19.40;99.90;;;;;;8395472;28;20004;-65
2021/06/20 02:50:34;;;;;;;;;;;19.40;99.90;;;;;;8396082;28;19909;-65
2021/06/20 02:54:35;;;;;;;;;;;19.20;99.90;;;;;;8374565;28;19963;-65
2021/06/20 02:58:36;;;;;;;;;;;19.00;99.90;;;;;;8361944;28;19908;-65
2021/06/20 03:02:36;;;;;;;;;;;19.20;99.90;;;;;;8363139;28;19913;-65
2021/06/20 03:06:37;;;;;;;;;;;19.20;99.90;;;;;;8394741;28;19950;-65
2021/06/20 03:10:38;;;;;;;;;;;19.20;99.90;;;;;;8394886;28;20422;-66
2021/06/20 03:14:39;;;;;;;;;;;19.10;99.90;;;;;;8393629;28;19916;-65
2021/06/20 03:18:39;;;;;;;;;;;19.40;99.90;;;;;;8409442;22;20310;-67
2021/06/20 03:22:39;;;;;;;;;;;19.40;99.90;;;;;;8393871;28;19920;-67
2021/06/20 03:26:40;;;;;;;;;;;19.30;99.90;;;;;;8394454;28;20362;-68
2021/06/20 03:30:40;;;;;;;;;;;19.30;99.90;;;;;;8394159;28;19947;-66
2021/06/20 03:34:41;;;;;;;;;;;19.20;99.90;;;;;;8375619;28;19909;-67
2021/06/20 03:38:41;;;;;;;;;;;19.10;99.90;;;;;;8360825;28;20097;-66
2021/06/20 03:42:42;;;;;;;;;;;19.00;99.90;;;;;;8359467;28;19952;-66
2021/06/20 03:46:42;;;;;;;;;;;19.30;99.90;;;;;;8360059;28;20382;-68
2021/06/20 03:50:43;;;;;;;;;;;19.20;99.90;;;;;;8358576;28;19947;-67
2021/06/20 03:54:49;;;;;;;;;;;19.20;99.90;;;;;;8382898;28;19948;-67
2021/06/20 03:58:50;;;;;;;;;;;19.40;99.90;;;;;;8393225;28;19949;-67
2021/06/20 04:02:50;;;;;;;;;;;19.70;99.90;;;;;;8390338;28;20011;-66
2021/06/20 04:06:51;;;;;;;;;;;19.80;99.90;;;;;;8361370;28;19920;-67
2021/06/20 04:10:51;;;;;;;;;;;20.00;99.90;;;;;;8359906;28;19913;-67
2021/06/20 04:14:52;;;;;;;;;;;20.30;99.90;;;;;;8360104;28;19954;-67
2021/06/20 04:18:52;;;;;;;;;;;20.50;99.90;;;;;;8359962;28;20375;-67
2021/06/20 04:22:53;;;;;;;;;;;20.40;99.90;;;;;;8359296;28;20042;-67
2021/06/20 04:26:53;;;;;;;;;;;20.50;99.90;;;;;;8359456;28;19915;-65
2021/06/20 04:30:56;;;;;;;;;;;20.50;99.90;;;;;;8358596;28;20286;-67
2021/06/20 04:34:56;;;;;;;;;;;20.70;99.90;;;;;;8379692;28;19965;-67
2021/06/20 04:38:58;;;;;;;;;;;20.60;99.90;;;;;;8392261;28;19916;-67
2021/06/20 04:43:04;;;;;;;;;;;20.80;99.90;;;;;;8391059;28;20443;-67
2021/06/20 04:47:05;;;;;;;;;;;20.80;99.90;;;;;;8391913;28;20420;-67
2021/06/20 04:51:05;;;;;;;;;;;20.60;99.90;;;;;;8392546;28;19916;-67
2021/06/20 04:55:06;;;;;;;;;;;20.60;99.90;;;;;;8366536;28;19908;-68
2021/06/20 04:59:07;;;;;;;;;;;20.70;99.90;;;;;;8359120;28;19909;-67
2021/06/20 05:03:08;;;;;;;;;;;20.50;99.90;;;;;;8364644;28;19916;-66
2021/06/20 05:07:09;;;;;;;;;;;20.20;99.90;;;;;;8394748;28;20317;-66
2021/06/20 05:11:09;;;;;;;;;;;20.20;99.90;;;;;;8394295;28;20456;-65
2021/06/20 05:15:10;;;;;;;;;;;19.80;99.90;;;;;;8369983;28;19959;-62
2021/06/20 05:19:10;;;;;;;;;;;19.40;99.90;;;;;;8364938;28;19916;-63
2021/06/20 05:23:11;;;;;;;;;;;19.10;99.90;;;;;;8376825;28;20003;-63
2021/06/20 05:27:12;;;;;;;;;;;18.90;99.90;;;;;;8360310;28;20447;-63
2021/06/20 05:31:12;;;;;;;;;;;18.70;99.90;;;;;;8359323;28;19931;-63
2021/06/20 05:35:13;;;;;;;;;;;18.60;99.90;;;;;;8381238;28;19908;-63
2021/06/20 05:39:13;;;;;;;;;;;18.60;99.90;;;;;;8389688;28;19947;-64
2021/06/20 05:43:13;;;;;;;;;;;18.70;99.90;;;;;;8388689;28;19973;-64
2021/06/20 05:47:14;;;;;;;;;;;18.60;99.90;;;;;;8375530;28;19920;-64
2021/06/20 05:51:15;;;;;;;;;;;18.60;99.90;;;;;;8373058;28;19943;-64
2021/06/20 05:55:15;;;;;;;;;;;18.60;99.90;;;;;;8385046;28;19919;-63
2021/06/20 05:59:16;;;;;;;;;;;18.60;99.90;;;;;;8391007;28;20374;-64
2021/06/20 06:03:16;;;;;;;;;;;18.70;99.90;;;;;;8382290;28;19913;-65
2021/06/20 06:07:17;;;;;;;;;;;18.90;99.90;;;;;;8361415;28;20363;-65
2021/06/20 06:11:17;;;;;;;;;;;18.90;99.90;;;;;;8389771;28;20432;-65
2021/06/20 06:15:18;;;;;;;;;;;18.90;99.90;;;;;;8377942;28;19936;-65
2021/06/20 06:19:18;;;;;;;;;;;18.80;99.90;;;;;;8379688;28;19961;-65
2021/06/20 06:23:19;;;;;;;;;;;18.70;99.90;;;;;;8377242;28;20059;-65
2021/06/20 06:27:19;;;;;;;;;;;18.60;99.90;;;;;;8368214;28;19920;-65
2021/06/20 06:31:20;;;;;;;;;;;18.60;99.90;;;;;;8368434;28;19924;-64
2021/06/20 06:35:20;;;;;;;;;;;18.90;99.90;;;;;;8377721;28;20432;-64
2021/06/20 06:39:21;;;;;;;;;;;19.10;99.90;;;;;;8370720;28;19913;-65
2021/06/20 06:43:22;;;;;;;;;;;19.00;99.90;;;;;;8366131;28;20007;-65
2021/06/20 06:47:22;;;;;;;;;;;19.10;99.90;;;;;;8362067;28;19936;-65
2021/06/20 06:51:23;;;;;;;;;;;19.40;99.90;;;;;;8365261;28;19912;-63
2021/06/20 06:55:23;;;;;;;;;;;19.40;99.90;;;;;;8379537;28;19913;-64
2021/06/20 06:59:24;;;;;;;;;;;19.50;99.90;;;;;;8386841;28;19919;-62
2021/06/20 07:03:24;;;;;;;;;;;20.00;99.90;;;;;;8373611;28;19916;-64
2021/06/20 07:07:26;;;;;;;;;;;20.20;99.90;;;;;;8394958;28;20011;-63
2021/06/20 07:11:26;;;;;;;;;;;20.20;99.90;;;;;;8389319;28;20324;-63
2021/06/20 07:15:27;;;;;;;;;;;20.40;99.90;;;;;;8378249;28;19913;-64
2021/06/20 07:19:28;;;;;;;;;;;20.70;99.90;;;;;;8367793;28;20397;-63
2021/06/20 07:23:28;;;;;;;;;;;21.10;99.90;;;;;;8377885;28;20271;-64
2021/06/20 07:27:29;;;;;;;;;;;21.30;99.90;;;;;;8377934;28;19913;-63
2021/06/20 07:31:29;;;;;;;;;;;21.40;99.90;;;;;;8379368;28;19916;-63
2021/06/20 07:35:30;;;;;;;;;;;21.20;99.90;;;;;;8370290;28;20299;-63
2021/06/20 07:39:31;;;;;;;;;;;21.20;99.90;;;;;;8368505;28;19953;-62
2021/06/20 07:43:31;;;;;;;;;;;21.40;99.90;;;;;;8375278;28;19932;-63
2021/06/20 07:47:32;;;;;;;;;;;21.70;99.90;;;;;;8376178;28;19943;-63
2021/06/20 07:51:33;;;;;;;;;;;21.90;99.90;;;;;;8376998;28;20000;-63
2021/06/20 07:55:33;;;;;;;;;;;22.00;99.90;;;;;;8369969;28;19913;-62
2021/06/20 07:59:34;;;;;;;;;;;22.20;99.90;;;;;;8375277;28;19990;-63
2021/06/20 08:03:34;;;;;;;;;;;22.30;99.90;;;;;;8375541;28;19970;-63
2021/06/20 08:07:35;;;;;;;;;;;22.30;99.90;;;;;;8379627;28;19912;-63
2021/06/20 08:11:35;;;;;;;;;;;22.50;99.90;;;;;;8385651;28;20318;-63
2021/06/20 08:15:36;;;;;;;;;;;22.80;99.90;;;;;;8377042;28;19912;-63
2021/06/20 08:19:36;;;;;;;;;;;23.00;99.90;;;;;;8378299;28;19959;-63
2021/06/20 08:23:37;;;;;;;;;;;23.10;99.90;;;;;;8378906;28;20872;-63
2021/06/20 08:27:37;;;;;;;;;;;23.10;99.90;;;;;;8380104;28;19924;-62
2021/06/20 08:31:38;;;;;;;;;;;23.30;99.90;;;;;;8387173;28;20371;-63
2021/06/20 08:35:38;;;;;;;;;;;23.80;99.90;;;;;;8372982;28;19947;-63
2021/06/20 08:39:39;;;;;;;;;;;24.00;99.90;;;;;;8371581;28;20236;-63
2021/06/20 08:43:39;;;;;;;;;;;24.50;99.90;;;;;;8372159;28;20400;-64
2021/06/20 08:47:40;;;;;;;;;;;24.90;99.90;;;;;;8371288;28;20435;-64
2021/06/20 08:51:43;;;;;;;;;;;24.90;99.90;;;;;;8371162;28;19927;-63
2021/06/20 08:55:44;;;;;;;;;;;24.90;99.90;;;;;;8375281;28;19923;-63
2021/06/20 08:59:44;;;;;;;;;;;24.70;99.90;;;;;;8367816;28;20437;-64
2021/06/20 09:03:45;;;;;;;;;;;24.60;99.90;;;;;;8372873;28;19925;-63
2021/06/20 09:07:46;;;;;;;;;;;24.50;99.90;;;;;;8369253;28;20150;-64
2021/06/20 09:11:46;;;;;;;;;;;24.30;99.90;;;;;;8372523;28;19970;-62
2021/06/20 09:15:57;;;;;;;;;;;24.30;99.90;;;;;;8390569;23;20000;31
2021/06/20 09:20:02;;;;;;;;;;;24.50;99.90;;;;;;8321178;28;19994;-64
2021/06/20 09:24:03;;;;;;;;;;;25.10;99.90;;;;;;8322839;28;20204;-64
2021/06/20 09:28:04;;;;;;;;;;;25.30;99.90;;;;;;8303660;28;19913;-64
2021/06/20 09:32:09;;;;;;;;;;;25.20;99.90;;;;;;8289376;28;19917;-63
2021/06/20 09:36:09;;;;;;;;;;;25.30;99.90;;;;;;8289438;28;20002;-64
2021/06/20 09:40:10;;;;;;;;;;;25.50;99.90;;;;;;8288104;28;19913;-63
2021/06/20 09:44:11;;;;;;;;;;;25.60;99.90;;;;;;8289129;28;20311;-63
2021/06/20 09:48:23;;;;;;;;;;;25.80;99.90;;;;;;8294574;28;19931;-63
2021/06/20 09:52:25;;;;;;;;;;;26.00;99.90;;;;;;8292038;28;19944;-63
2021/06/20 09:56:30;;;;;;;;;;;26.20;99.90;;;;;;8295546;28;19917;-63
2021/06/20 10:00:41;;;;;;;;;;;26.30;99.90;;;;;;8312391;28;20373;-63
2021/06/20 10:04:42;;;;;;;;;;;26.20;99.90;;;;;;8295560;28;20407;-63
2021/06/20 10:08:43;;;;;;;;;;;26.00;99.90;;;;;;8297446;28;19916;-63
2021/06/20 10:12:43;;;;;;;;;;;25.90;99.90;;;;;;8297540;28;19946;-63
2021/06/20 10:16:48;;;;;;;;;;;26.40;99.90;;;;;;8297313;28;20508;-63
2021/06/20 10:20:54;;;;;;;;;;;26.80;99.90;;;;;;8312407;28;19910;-63
2021/06/20 10:24:56;;;;;;;;;;;27.20;99.90;;;;;;8297775;28;19975;-63
2021/06/20 10:28:56;;;;;;;;;;;27.40;99.90;;;;;;8297236;28;19909;-63
2021/06/20 10:33:02;;;;;;;;;;;27.70;99.90;;;;;;8297240;28;19935;-63
2021/06/20 10:37:06;;;;;;;;;;;27.40;99.90;;;;;;8296688;28;19990;-63
2021/06/20 10:41:09;;;;;;;;;;;27.80;99.90;;;;;;8296881;28;19909;-63
2021/06/20 10:45:09;;;;;;;;;;;28.10;99.90;;;;;;8296318;28;19946;-63
2021/06/20 10:49:18;;;;;;;;;;;28.10;99.90;;;;;;8290768;28;19975;-63
2021/06/20 10:53:19;;;;;;;;;;;28.50;99.90;;;;;;8292222;28;20703;-63
2021/06/20 10:57:27;;;;;;;;;;;28.90;99.90;;;;;;8291741;28;19986;-63
2021/06/20 11:01:29;;;;;;;;;;;29.80;99.90;;;;;;8292607;28;19971;-63
2021/06/20 11:05:41;;;;;;;;;;;30.30;99.90;;;;;;8291321;28;20019;-64
2021/06/20 11:09:41;;;;;;;;;;;30.90;99.90;;;;;;8290161;28;19940;-63
2021/06/20 11:13:43;;;;;;;;;;;30.90;99.90;;;;;;8291299;28;20367;-63
2021/06/20 11:17:44;;;;;;;;;;;30.10;99.90;;;;;;8289519;28;19921;-63
2021/06/20 11:21:47;;;;;;;;;;;30.20;99.90;;;;;;8291953;28;20326;-64
2021/06/20 11:25:52;;;;;;;;;;;30.50;99.90;;;;;;8291264;28;19939;-64
2021/06/20 11:29:53;;;;;;;;;;;30.60;99.90;;;;;;8290826;28;19959;-63
2021/06/20 11:33:54;;;;;;;;;;;30.80;99.90;;;;;;8290480;28;20411;-63
2021/06/20 11:37:55;;;;;;;;;;;30.80;99.90;;;;;;8290554;28;20121;-63
2021/06/20 11:41:56;;;;;;;;;;;31.00;99.90;;;;;;8288817;28;19940;-64
2021/06/20 11:45:56;;;;;;;;;;;32.10;99.90;;;;;;8290647;28;19951;-63
2021/06/20 11:50:07;;;;;;;;;;;32.00;99.90;;;;;;8278021;28;19957;-64
2021/06/20 11:54:09;;;;;;;;;;;31.80;99.90;;;;;;8276139;28;19932;-63
2021/06/20 11:58:12;;;;;;;;;;;32.70;99.90;;;;;;8288860;28;19924;-63
2021/06/20 12:02:13;;;;;;;;;;;31.80;99.90;;;;;;8290027;28;20422;-63
2021/06/20 12:06:13;;;;;;;;;;;31.30;99.90;;;;;;8288200;28;19917;-64
2021/06/20 12:10:15;;;;;;;;;;;32.20;99.90;;;;;;8287646;28;21177;-63
2021/06/20 12:14:20;;;;;;;;;;;31.90;99.90;;;;;;8288429;28;20522;-63
2021/06/20 12:18:21;;;;;;;;;;;31.70;99.90;;;;;;8288643;28;19917;-63
2021/06/20 12:22:22;;;;;;;;;;;31.90;99.90;;;;;;8288137;28;19931;-63
2021/06/20 12:26:26;;;;;;;;;;;31.40;99.90;;;;;;8286828;28;20277;-63
2021/06/20 12:30:28;;;;;;;;;;;31.40;99.90;;;;;;8290895;28;19913;-63
2021/06/20 12:34:46;;;;;;;;;;;32.30;99.90;;;;;;8291631;28;19921;-63
2021/06/20 12:38:52;;;;;;;;;;;32.20;99.90;;;;;;8288309;28;19947;-63
2021/06/20 12:42:54;;;;;;;;;;;33.40;99.90;;;;;;8291380;28;19925;-63
2021/06/20 12:46:55;;;;;;;;;;;34.80;98.90;;;;;;8290441;28;19943;-64
2021/06/20 12:50:56;;;;;;;;;;;35.90;95.80;;;;;;8284227;28;19930;-63
2021/06/20 12:54:57;;;;;;;;;;;35.80;93.50;;;;;;8289730;28;19921;-63
2021/06/20 12:58:59;;;;;;;;;;;35.20;94.30;;;;;;8291847;28;19921;-63
2021/06/20 13:03:00;;;;;;;;;;;35.70;92.50;;;;;;8289534;28;19963;-63
2021/06/20 13:07:01;;;;;;;;;;;36.20;90.90;;;;;;8290575;28;19916;-63
2021/06/20 13:11:02;;;;;;;;;;;35.80;91.50;;;;;;8292838;28;19917;-63
2021/06/20 13:15:06;;;;;;;;;;;36.90;91.80;;;;;;8292663;28;19914;-64
2021/06/20 13:19:08;;;;;;;;;;;38.80;81.10;;;;;;8291761;28;19917;-63
2021/06/20 13:23:09;;;;;;;;;;;38.20;73.00;;;;;;8296828;28;19918;-63
2021/06/20 13:27:10;;;;;;;;;;;36.50;79.70;;;;;;8297549;28;20379;-64
2021/06/20 13:31:10;;;;;;;;;;;36.40;81.70;;;;;;8298439;28;19921;-64
2021/06/20 13:35:12;;;;;;;;;;;38.50;78.30;;;;;;8296283;28;19963;-64
2021/06/20 13:39:13;;;;;;;;;;;41.30;66.20;;;;;;8298377;28;19963;-64
2021/06/20 13:43:13;;;;;;;;;;;41.20;58.60;;;;;;8296666;28;19979;-64
2021/06/20 13:47:14;;;;;;;;;;;41.50;57.40;;;;;;8296976;28;20277;-64
2021/06/20 13:51:14;;;;;;;;;;;40.80;57.10;;;;;;8296850;28;19991;-63
2021/06/20 13:55:16;;;;;;;;;;;39.50;60.20;;;;;;8296455;28;19960;-64
2021/06/20 13:59:18;;;;;;;;;;;40.30;62.10;;;;;;8297143;28;19917;-64
2021/06/20 14:03:19;;;;;;;;;;;41.40;57.80;;;;;;8291803;28;20043;-64
2021/06/20 14:07:19;;;;;;;;;;;41.40;56.10;;;;;;8296138;28;19921;-64
2021/06/20 14:11:20;;;;;;;;;;;38.90;59.20;;;;;;8296634;28;19960;-63
2021/06/20 14:15:20;;;;;;;;;;;37.30;61.70;;;;;;8296602;28;20281;-63
2021/06/20 14:19:21;;;;;;;;;;;34.50;70.50;;;;;;8295595;28;20303;-63
2021/06/20 14:23:21;;;;;;;;;;;33.90;71.70;;;;;;8296855;28;19918;-63
2021/06/20 14:27:22;;;;;;;;;;;33.10;77.40;;;;;;8295163;28;19913;-63
2021/06/20 14:31:22;;;;;;;;;;;32.60;78.60;;;;;;8295044;28;19914;-63
2021/06/20 14:35:23;;;;;;;;;;;31.40;83.30;;;;;;8293913;28;19913;-63
2021/06/20 14:39:23;;;;;;;;;;;32.00;82.80;;;;;;8295488;28;20008;-63
2021/06/20 14:43:24;;;;;;;;;;;32.90;79.30;;;;;;8295448;28;19918;-63
2021/06/20 14:47:24;;;;;;;;;;;32.90;79.80;;;;;;8287490;28;19914;-64
2021/06/20 14:51:25;;;;;;;;;;;34.70;72.90;;;;;;8294397;28;19971;-64
2021/06/20 14:55:26;;;;;;;;;;;35.70;74.10;;;;;;8294902;28;20075;-64
2021/06/20 14:59:27;;;;;;;;;;;38.00;65.50;;;;;;8294805;28;19914;-63
2021/06/20 15:03:28;;;;;;;;;;;37.50;60.90;;;;;;8310620;28;19921;-63
2021/06/20 15:07:28;;;;;;;;;;;34.80;69.80;;;;;;8292687;28;19972;-63
2021/06/20 15:11:29;;;;;;;;;;;33.10;74.60;;;;;;8295600;28;20288;-63
2021/06/20 15:15:30;;;;;;;;;;;32.50;79.80;;;;;;8296325;28;19920;-64
2021/06/20 15:19:30;;;;;;;;;;;32.60;81.60;;;;;;8293068;28;19975;-63
2021/06/20 15:23:31;;;;;;;;;;;32.90;80.80;;;;;;8295819;28;19957;-63
2021/06/20 15:27:31;;;;;;;;;;;32.60;81.40;;;;;;8295184;28;20317;-63
2021/06/20 15:31:34;;;;;;;;;;;32.00;83.30;;;;;;8294062;28;19935;-63
2021/06/20 15:35:37;;;;;;;;;;;31.80;84.80;;;;;;8375411;22;19929;-64
2021/06/20 15:39:38;;;;;;;;;;;31.40;90.00;;;;;;8389607;28;20367;-64
2021/06/20 15:43:38;;;;;;;;;;;31.10;91.00;;;;;;8387745;28;19952;-63
2021/06/20 15:47:45;;;;;;;;;;;31.30;89.40;;;;;;8360605;28;19927;-63
2021/06/20 15:51:45;;;;;;;;;;;31.90;89.30;;;;;;8359669;28;19939;-66
2021/06/20 15:55:45;;;;;;;;;;;33.40;85.00;;;;;;8359694;28;20000;-66
2021/06/20 15:59:51;;;;;;;;;;;34.10;79.90;;;;;;8357853;28;19966;-65
2021/06/20 16:03:51;;;;;;;;;;;33.30;85.40;;;;;;8358213;28;20486;-65
2021/06/20 16:07:52;;;;;;;;;;;32.20;87.70;;;;;;8360491;28;19909;-65
2021/06/20 16:11:53;;;;;;;;;;;31.50;90.50;;;;;;8359168;28;19915;-64
2021/06/20 16:15:53;;;;;;;;;;;30.90;91.20;;;;;;8359496;28;19916;-65
2021/06/20 16:19:54;;;;;;;;;;;30.30;93.10;;;;;;8358498;28;20557;-65
2021/06/20 16:23:54;;;;;;;;;;;29.60;94.70;;;;;;8359913;28;20162;-65
2021/06/20 16:27:55;;;;;;;;;;;29.10;96.00;;;;;;8359255;28;19955;-65
2021/06/20 16:31:56;;;;;;;;;;;28.80;97.80;;;;;;8358940;28;20493;-65
2021/06/20 16:35:56;;;;;;;;;;;28.60;98.20;;;;;;8330465;28;19951;-64
2021/06/20 16:39:57;;;;;;;;;;;28.30;99.90;;;;;;8350380;28;19946;-65
2021/06/20 16:43:57;;;;;;;;;;;28.20;99.90;;;;;;8349148;28;19954;-65
2021/06/20 16:47:58;;;;;;;;;;;27.70;99.90;;;;;;8353068;28;19931;-64
2021/06/20 16:51:58;;;;;;;;;;;27.40;99.90;;;;;;8355032;28;19916;-65
2021/06/20 16:55:59;;;;;;;;;;;27.10;99.90;;;;;;8337435;28;19997;-65
2021/06/20 17:00:00;;;;;;;;;;;27.00;99.90;;;;;;8341003;28;19929;-65
2021/06/20 17:04:00;;;;;;;;;;;26.90;99.90;;;;;;8331459;28;19985;-64
2021/06/20 17:08:01;;;;;;;;;;;26.80;99.90;;;;;;8329487;28;19951;-65
2021/06/20 17:12:02;;;;;;;;;;;26.70;99.90;;;;;;8327148;28;19916;-65
2021/06/20 17:16:03;;;;;;;;;;;26.80;99.90;;;;;;8327127;28;19958;-64
2021/06/20 17:20:04;;;;;;;;;;;26.50;99.90;;;;;;8345521;28;19996;-67
2021/06/20 17:24:05;;;;;;;;;;;26.40;99.90;;;;;;8341538;28;19967;-67
2021/06/20 17:28:05;;;;;;;;;;;26.20;99.90;;;;;;8339361;28;19917;-67
2021/06/20 17:32:07;;;;;;;;;;;26.10;99.90;;;;;;8344276;28;19921;-67
2021/06/20 17:36:07;;;;;;;;;;;26.00;99.90;;;;;;8331332;28;20383;-66
2021/06/20 17:40:09;;;;;;;;;;;25.80;99.90;;;;;;8338710;28;20078;-66
2021/06/20 17:44:09;;;;;;;;;;;25.70;99.90;;;;;;8331134;28;19920;-67
2021/06/20 17:48:10;;;;;;;;;;;25.50;99.90;;;;;;8342439;28;20424;-66
2021/06/20 17:52:10;;;;;;;;;;;25.40;99.90;;;;;;8339267;28;20005;-67
2021/06/20 17:56:11;;;;;;;;;;;25.20;99.90;;;;;;8341449;28;19947;-67
2021/06/20 18:00:12;;;;;;;;;;;25.00;99.90;;;;;;8345147;28;20635;-67
2021/06/20 18:04:13;;;;;;;;;;;25.00;99.90;;;;;;8327902;28;19921;-66
2021/06/20 18:08:13;;;;;;;;;;;24.90;99.90;;;;;;8322289;28;19921;-66
2021/06/20 18:12:14;;;;;;;;;;;24.80;99.90;;;;;;8330102;28;19967;-68
2021/06/20 18:16:14;;;;;;;;;;;24.80;99.90;;;;;;8337582;28;19943;-68
2021/06/20 18:20:15;;;;;;;;;;;24.70;99.90;;;;;;8346473;28;19977;-68
2021/06/20 18:24:15;;;;;;;;;;;24.60;99.90;;;;;;8338797;28;19978;-66
2021/06/20 18:28:16;;;;;;;;;;;24.80;99.90;;;;;;8327603;28;20413;-67
2021/06/20 18:32:16;;;;;;;;;;;24.90;99.90;;;;;;8330093;28;19952;-67
2021/06/20 18:36:17;;;;;;;;;;;24.70;99.90;;;;;;8330116;28;19987;-68
2021/06/20 18:40:18;;;;;;;;;;;24.40;99.90;;;;;;8327228;28;19955;-68
2021/06/20 18:44:19;;;;;;;;;;;24.30;99.90;;;;;;8327711;28;20315;-68
2021/06/20 18:48:20;;;;;;;;;;;24.00;99.90;;;;;;8327292;28;19937;-68
2021/06/20 18:52:21;;;;;;;;;;;23.40;99.90;;;;;;8340623;28;19917;-68
2021/06/20 18:56:22;;;;;;;;;;;22.90;99.90;;;;;;8353897;28;19920;-66
2021/06/20 19:00:23;;;;;;;;;;;22.60;99.90;;;;;;8357594;28;19912;-66
2021/06/20 19:04:24;;;;;;;;;;;22.50;99.90;;;;;;8356891;28;19917;-67
2021/06/20 19:08:24;;;;;;;;;;;22.40;99.90;;;;;;8356439;28;19995;-67
2021/06/20 19:12:26;;;;;;;;;;;22.20;99.90;;;;;;8357113;28;20461;-67
2021/06/20 19:16:27;;;;;;;;;;;22.10;99.90;;;;;;8355734;28;20306;-66
2021/06/20 19:20:28;;;;;;;;;;;22.30;99.90;;;;;;8354839;28;19919;-67
2021/06/20 19:24:29;;;;;;;;;;;22.30;99.90;;;;;;8356550;28;20319;-67
2021/06/20 19:28:30;;;;;;;;;;;22.40;99.90;;;;;;8353014;28;19951;-66
2021/06/20 19:32:30;;;;;;;;;;;22.20;99.90;;;;;;8356811;28;19931;-66
2021/06/20 19:36:31;;;;;;;;;;;21.80;99.90;;;;;;8353970;28;19924;-66
2021/06/20 19:40:32;;;;;;;;;;;21.70;99.90;;;;;;8355467;28;19934;-66
2021/06/20 19:44:33;;;;;;;;;;;21.30;99.90;;;;;;8356481;28;19947;-68
2021/06/20 19:48:33;;;;;;;;;;;21.20;99.90;;;;;;8354441;28;19928;-68
2021/06/20 19:52:34;;;;;;;;;;;21.20;99.90;;;;;;8356161;28;20294;-68
2021/06/20 19:56:34;;;;;;;;;;;21.10;99.90;;;;;;8355956;28;19923;-67
2021/06/20 20:00:35;;;;;;;;;;;21.00;99.90;;;;;;8358627;28;19920;-66
2021/06/20 20:04:36;;;;;;;;;;;21.00;99.90;;;;;;8356155;28;20020;-65
2021/06/20 20:08:36;;;;;;;;;;;21.00;99.90;;;;;;8358461;28;19981;-65
2021/06/20 20:12:39;;;;;;;;;;;20.90;99.90;;;;;;8357935;28;19943;-66
2021/06/20 20:16:40;;;;;;;;;;;20.60;99.90;;;;;;8356878;28;19924;-64
2021/06/20 20:20:41;;;;;;;;;;;20.40;99.90;;;;;;8355626;28;19942;-65
2021/06/20 20:24:41;;;;;;;;;;;20.10;99.90;;;;;;8352532;28;20043;-65
2021/06/20 20:28:42;;;;;;;;;;;19.80;99.90;;;;;;8353479;28;19951;-65
2021/06/20 20:32:44;;;;;;;;;;;19.50;99.90;;;;;;8355939;28;19912;-65
2021/06/20 20:36:44;;;;;;;;;;;19.30;99.90;;;;;;8355676;28;19951;-64
2021/06/20 20:40:45;;;;;;;;;;;19.00;99.90;;;;;;8359575;28;19947;-65
2021/06/20 20:44:45;;;;;;;;;;;19.00;99.90;;;;;;8359420;28;19916;-65
2021/06/20 20:48:46;;;;;;;;;;;18.90;99.90;;;;;;8358384;28;19930;-65
2021/06/20 20:52:46;;;;;;;;;;;18.70;99.90;;;;;;8358593;28;19917;-65
2021/06/20 20:56:47;;;;;;;;;;;18.70;99.90;;;;;;8358515;28;19915;-64
2021/06/20 21:00:47;;;;;;;;;;;18.60;99.90;;;;;;8359087;28;19909;-65
2021/06/20 21:04:48;;;;;;;;;;;18.40;99.90;;;;;;8358643;28;19917;-65
2021/06/20 21:08:49;;;;;;;;;;;18.30;99.90;;;;;;8358458;28;19954;-66
2021/06/20 21:12:49;;;;;;;;;;;18.30;99.90;;;;;;8358655;28;19912;-64
2021/06/20 21:16:50;;;;;;;;;;;18.20;99.90;;;;;;8357320;28;20038;-66
2021/06/20 21:20:50;;;;;;;;;;;18.20;99.90;;;;;;8359043;28;20374;-65
2021/06/20 21:24:52;;;;;;;;;;;18.10;99.90;;;;;;8359036;28;19974;-65
2021/06/20 21:28:52;;;;;;;;;;;17.90;99.90;;;;;;8358401;28;19908;-63
2021/06/20 21:32:53;;;;;;;;;;;17.70;99.90;;;;;;8358774;28;19956;-65
2021/06/20 21:36:53;;;;;;;;;;;17.60;99.90;;;;;;8404617;22;19925;-64
2021/06/20 21:40:54;;;;;;;;;;;17.90;99.90;;;;;;8391802;28;19962;-65
2021/06/20 21:44:55;;;;;;;;;;;17.70;99.90;;;;;;8397644;28;19920;-65
2021/06/20 21:48:55;;;;;;;;;;;17.50;99.90;;;;;;8397126;28;20286;-64
2021/06/20 21:52:56;;;;;;;;;;;17.50;99.90;;;;;;8397427;28;19957;-64
2021/06/20 21:56:56;;;;;;;;;;;17.40;99.90;;;;;;8389549;28;19941;-65
2021/06/20 22:00:56;;;;;;;;;;;17.40;99.90;;;;;;8378412;28;19962;-65
2021/06/20 22:04:57;;;;;;;;;;;17.40;99.90;;;;;;8376105;28;19916;-65
2021/06/20 22:08:58;;;;;;;;;;;17.30;99.90;;;;;;8363696;28;19920;-65
2021/06/20 22:13:01;;;;;;;;;;;17.40;99.90;;;;;;8363789;28;20023;-64
2021/06/20 22:17:02;;;;;;;;;;;17.10;99.90;;;;;;8363511;28;20010;-65
2021/06/20 22:21:03;;;;;;;;;;;16.90;99.90;;;;;;8363853;28;20378;-64
2021/06/20 22:25:04;;;;;;;;;;;17.10;99.90;;;;;;8363536;28;19996;-64
2021/06/20 22:29:06;;;;;;;;;;;17.30;99.90;;;;;;8363636;28;19976;-64
2021/06/20 22:33:08;;;;;;;;;;;17.40;99.90;;;;;;8368456;28;19919;-65
2021/06/20 22:37:08;;;;;;;;;;;17.20;99.90;;;;;;8396115;28;19960;-64
2021/06/20 22:41:09;;;;;;;;;;;17.30;99.90;;;;;;8395264;28;19924;-65
2021/06/20 22:45:10;;;;;;;;;;;17.20;99.90;;;;;;8396021;28;20333;-64
2021/06/20 22:49:10;;;;;;;;;;;17.40;99.90;;;;;;8395532;28;19909;-65
2021/06/20 22:53:11;;;;;;;;;;;17.30;99.90;;;;;;8385492;28;20369;-64
2021/06/20 22:57:11;;;;;;;;;;;17.30;99.90;;;;;;8362870;28;20259;-65
2021/06/20 23:01:12;;;;;;;;;;;17.30;99.90;;;;;;8362498;28;20358;-65
2021/06/20 23:05:12;;;;;;;;;;;17.40;99.90;;;;;;8384995;28;19992;-65
2021/06/20 23:09:13;;;;;;;;;;;17.20;99.90;;;;;;8370668;28;19909;-64
2021/06/20 23:13:13;;;;;;;;;;;17.20;99.90;;;;;;8387660;28;19919;-65
2021/06/20 23:17:14;;;;;;;;;;;17.30;99.90;;;;;;8393483;28;20291;-64
2021/06/20 23:21:15;;;;;;;;;;;17.30;99.90;;;;;;8395056;28;19986;-66